This is the latest recevied weather packets stored in our database for station/object N3WXO-1. If no packets are shown the sender has not sent any weather packets the latest 1 day(s).
| Time | Temp. | Humidity | Pressure | Rain* | Wind** | Luminosity | Snow |
|---|---|---|---|---|---|---|---|
| 1836274652 | 15.56° C | 77% | 1020.3 hPa | 0 mm | 0 m/s | 0 W/m² | - |
| 1836274490 | 15.56° C | 77% | 1020.4 hPa | 0 mm | 0 m/s | 0 W/m² | - |
| 1836274348 | 15.56° C | 76% | 1020.3 hPa | 0 mm | 0 m/s | 0 W/m² | - |
| 1836274207 | 15.56° C | 76% | 1020.3 hPa | 0 mm | 0 m/s | 0 W/m² | - |
| 1836274044 | 15.56° C | 75% | 1020.3 hPa | 0 mm | 0 m/s | 0 W/m² | - |
| 1778052324 | 18.33° C | 68% | 1008.4 hPa | 0 mm | 0 m/s | 0 W/m² | - |
| 1778052030 | 17.78° C | 68% | 1008.5 hPa | 0 mm | 0 m/s | 0 W/m² | - |
| 1778051717 | 17.78° C | 68% | 1008.5 hPa | 0 mm | 0 m/s | 0 W/m² | - |
| 1778051428 | 17.78° C | 69% | 1008.4 hPa | 0 mm | 0 m/s | 0 W/m² | - |
| 1778051113 | 17.22° C | 70% | 1008.5 hPa | 0 mm | 0.89 m/s, 221° | 0 W/m² | - |
| 1778050820 | 16.67° C | 72% | 1008.6 hPa | 0 mm | 0 m/s | 0 W/m² | - |
| 1778050533 | 16.67° C | 72% | 1008.7 hPa | 0 mm | 0.45 m/s, 223° | 0 W/m² | - |
| 1778050222 | 16.67° C | 72% | 1008.6 hPa | 0 mm | 0 m/s | 0 W/m² | - |
| 1778049932 | 16.11° C | 72% | 1008.7 hPa | 0 mm | 0 m/s | 0 W/m² | - |
| 1778049621 | 16.11° C | 72% | 1008.8 hPa | 0 mm | 0 m/s | 0 W/m² | - |
| 1778049328 | 16.11° C | 72% | 1008.8 hPa | 0 mm | 0 m/s | 0 W/m² | - |
| 1778049014 | 16.11° C | 72% | 1008.8 hPa | 0 mm | 0.45 m/s, 231° | 0 W/m² | - |
| 1778048725 | 16.11° C | 72% | 1008.9 hPa | 0 mm | 0 m/s | 0 W/m² | - |
| 1778048421 | 16.11° C | 73% | 1009 hPa | 0 mm | 0 m/s | 0 W/m² | - |
| 1778048117 | 16.11° C | 72% | 1009 hPa | 0 mm | 0 m/s | 0 W/m² | - |
| 1778047826 | 16.11° C | 73% | 1009 hPa | 0 mm | 0 m/s | 0 W/m² | - |
| 1778047531 | 15.56° C | 73% | 1009.1 hPa | 0 mm | 0 m/s | 0 W/m² | - |
| 1778047223 | 15.56° C | 74% | 1009.1 hPa | 0 mm | 0 m/s | 0 W/m² | - |
| 1778046934 | 15.56° C | 75% | 1009.2 hPa | 0 mm | 0 m/s | 0 W/m² | - |
| 1778046622 | 15° C | 75% | 1009.3 hPa | 0 mm | 0 m/s | 0 W/m² | - |
* Rain latest hour (hover to see other rain measurements)
** Current wind speed in m/s (hover to see current wind gust speed)